Waremme, Belgium
Current Conditions -  °F | °C
As of 5:20 PM on Tuesday 21 Oct 2014 (Local Time) from EBLG Reporting Station
Scattered Clouds Scattered Clouds  
Wind Chill: 10°   Ceiling: Unl
Heat Index: 10°   Visibility: 6mi
Dew Point:   Wind: 17mph
Humidity: 76%   Direction: 280°W
Pressure: 29.65"   Gusts: 30mph
Location:  50.7°N, 5.26°E
Report Text: EBLG 211520Z 28015G26KT 9999 FEW011 SCT020 10/06 Q1004 TEMPO 3500 SHRA SCT010 BKN015
Loading
Personal Weather Stations






























Interactive Weather Map
Tropical Storm Tracking
New forecast layout! Learn more

10-Day Weather Forecast

Advertisements
Track Severe Weather on mobile